Calabogie, Canada
Current Conditions -  °F | °C
As of 3:00 PM on Tuesday 21 Oct 2014 (Local Time) from CYOW Reporting Station
Overcast Overcast  
Wind Chill: 38°   Ceiling: 2000
Heat Index: 45°   Visibility: 15mi
Dew Point: 39°   Wind: 13mph
Humidity: 81%   Direction: 50°NE
Pressure: 30.03"   Gusts: NA
Location:  45.31°N, 76.72°W
Report Text: CYOW 211900Z 05011KT 15SM FEW012 BKN020 OVC035 07/04 A3003 RMK CF1SC6SC2 CF TR SLP174
Loading
Personal Weather Stations






























Interactive Weather Map New forecast layout! Learn more

10-Day Weather Forecast

Advertisements
Track Severe Weather on mobile